sensor_id;sensor_type;location;lat;lon;timestamp;pressure;altitude;pressure_sealevel;temperature;humidity
46942;BME280;32676;52.630;4.896;2023-02-11T00:00:12;104070.78;;;7.74;80.89
46942;BME280;32676;52.630;4.896;2023-02-11T00:02:39;104078.69;;;7.76;80.99
46942;BME280;32676;52.630;4.896;2023-02-11T00:05:06;104069.84;;;7.72;80.92
46942;BME280;32676;52.630;4.896;2023-02-11T00:07:33;104077.88;;;7.77;81.17
46942;BME280;32676;52.630;4.896;2023-02-11T00:10:02;104089.28;;;7.79;81.08
46942;BME280;32676;52.630;4.896;2023-02-11T00:12:30;104100.69;;;7.81;81.21
46942;BME280;32676;52.630;4.896;2023-02-11T00:14:57;104113.91;;;7.85;81.24
46942;BME280;32676;52.630;4.896;2023-02-11T00:17:23;104112.09;;;7.83;81.21
46942;BME280;32676;52.630;4.896;2023-02-11T00:19:50;104110.34;;;7.83;81.22
46942;BME280;32676;52.630;4.896;2023-02-11T00:22:18;104113.84;;;7.84;81.15
46942;BME280;32676;52.630;4.896;2023-02-11T00:24:44;104106.84;;;7.83;81.31
46942;BME280;32676;52.630;4.896;2023-02-11T00:27:12;104115.63;;;7.85;81.24
46942;BME280;32676;52.630;4.896;2023-02-11T00:29:39;104109.53;;;7.84;81.28
46942;BME280;32676;52.630;4.896;2023-02-11T00:32:06;104106.97;;;7.86;81.28
46942;BME280;32676;52.630;4.896;2023-02-11T00:34:33;104110.41;;;7.85;81.28
46942;BME280;32676;52.630;4.896;2023-02-11T00:37:00;104114.75;;;7.84;81.52
46942;BME280;32676;52.630;4.896;2023-02-11T00:39:27;104110.41;;;7.85;81.40
46942;BME280;32676;52.630;4.896;2023-02-11T00:41:53;104125.28;;;7.86;81.35
46942;BME280;32676;52.630;4.896;2023-02-11T00:44:21;104110.41;;;7.85;81.39
46942;BME280;32676;52.630;4.896;2023-02-11T00:46:48;104112.19;;;7.86;81.46
46942;BME280;32676;52.630;4.896;2023-02-11T00:49:15;104108.59;;;7.84;81.57
46942;BME280;32676;52.630;4.896;2023-02-11T00:51:41;104097.19;;;7.82;81.58
46942;BME280;32676;52.630;4.896;2023-02-11T00:54:08;104092.81;;;7.81;81.56
46942;BME280;32676;52.630;4.896;2023-02-11T00:56:34;104092.81;;;7.81;81.80
46942;BME280;32676;52.630;4.896;2023-02-11T00:59:01;104087.59;;;7.81;81.89
46942;BME280;32676;52.630;4.896;2023-02-11T01:01:29;104089.28;;;7.79;81.97
46942;BME280;32676;52.630;4.896;2023-02-11T01:03:55;104084.03;;;7.79;82.00
46942;BME280;32676;52.630;4.896;2023-02-11T01:06:22;104084.03;;;7.79;82.09
46942;BME280;32676;52.630;4.896;2023-02-11T01:08:48;104100.75;;;7.84;82.17
46942;BME280;32676;52.630;4.896;2023-02-11T01:11:17;104094.59;;;7.82;82.32
46942;BME280;32676;52.630;4.896;2023-02-11T01:13:45;104080.47;;;7.77;82.28
46942;BME280;32676;52.630;4.896;2023-02-11T01:16:12;104064.66;;;7.74;82.25
46942;BME280;32676;52.630;4.896;2023-02-11T01:18:40;104048.84;;;7.71;82.32
46942;BME280;32676;52.630;4.896;2023-02-11T01:21:08;104031.28;;;7.66;82.38
46942;BME280;32676;52.630;4.896;2023-02-11T01:23:34;104020.72;;;7.63;82.56
46942;BME280;32676;52.630;4.896;2023-02-11T01:26:01;103997.91;;;7.59;82.49
46942;BME280;32676;52.630;4.896;2023-02-11T01:28:29;103992.56;;;7.56;82.61
46942;BME280;32676;52.630;4.896;2023-02-11T01:30:56;103974.19;;;7.53;82.69
46942;BME280;32676;52.630;4.896;2023-02-11T01:33:23;103958.44;;;7.52;82.80
46942;BME280;32676;52.630;4.896;2023-02-11T01:35:51;103943.44;;;7.46;82.71
46942;BME280;32676;52.630;4.896;2023-02-11T01:38:19;103938.97;;;7.43;82.85
46942;BME280;32676;52.630;4.896;2023-02-11T01:40:47;103914.44;;;7.40;82.67
46942;BME280;32676;52.630;4.896;2023-02-11T01:43:14;103898.63;;;7.37;82.82
46942;BME280;32676;52.630;4.896;2023-02-11T01:45:52;103888.06;;;7.32;83.02
46942;BME280;32676;52.630;4.896;2023-02-11T01:48:21;103874.03;;;7.30;83.02
46942;BME280;32676;52.630;4.896;2023-02-11T01:50:52;103840.66;;;7.21;83.24
46942;BME280;32676;52.630;4.896;2023-02-11T01:53:20;103832.78;;;7.21;83.27
46942;BME280;32676;52.630;4.896;2023-02-11T01:56:06;103824.84;;;7.18;83.28
46942;BME280;32676;52.630;4.896;2023-02-11T01:58:52;103822.22;;;7.18;83.46
46942;BME280;32676;52.630;4.896;2023-02-11T02:01:25;103815.25;;;7.17;83.49
46942;BME280;32676;52.630;4.896;2023-02-11T02:03:56;103801.13;;;7.12;83.57
46942;BME280;32676;52.630;4.896;2023-02-11T02:06:31;103782.72;;;7.09;83.52
46942;BME280;32676;52.630;4.896;2023-02-11T02:09:03;103767.81;;;7.05;83.67
46942;BME280;32676;52.630;4.896;2023-02-11T02:11:31;103764.38;;;7.06;83.69
46942;BME280;32676;52.630;4.896;2023-02-11T02:13:58;103764.38;;;7.06;83.93
46942;BME280;32676;52.630;4.896;2023-02-11T02:16:29;103750.31;;;7.02;83.79
46942;BME280;32676;52.630;4.896;2023-02-11T02:19:06;103732.69;;;6.97;83.95
46942;BME280;32676;52.630;4.896;2023-02-11T02:22:10;103702.94;;;6.91;83.93
46942;BME280;32676;52.630;4.896;2023-02-11T02:25:21;103702.94;;;6.91;84.30
46942;BME280;32676;52.630;4.896;2023-02-11T02:28:01;103689.81;;;6.90;84.33
46942;BME280;32676;52.630;4.896;2023-02-11T02:30:56;103681.03;;;6.88;84.36
46942;BME280;32676;52.630;4.896;2023-02-11T02:33:41;103680.06;;;6.84;84.49
46942;BME280;32676;52.630;4.896;2023-02-11T02:36:14;103675.72;;;6.85;84.54
46942;BME280;32676;52.630;4.896;2023-02-11T02:38:48;103668.72;;;6.84;84.61
46942;BME280;32676;52.630;4.896;2023-02-11T02:41:18;103663.47;;;6.82;84.72
46942;BME280;32676;52.630;4.896;2023-02-11T02:43:47;103664.28;;;6.81;84.80
46942;BME280;32676;52.630;4.896;2023-02-11T02:46:16;103643.28;;;6.78;84.90
46942;BME280;32676;52.630;4.896;2023-02-11T02:48:45;103636.22;;;6.74;85.04
46942;BME280;32676;52.630;4.896;2023-02-11T02:51:29;103637.13;;;6.76;85.09
46942;BME280;32676;52.630;4.896;2023-02-11T02:54:23;103632.78;;;6.75;85.18
46942;BME280;32676;52.630;4.896;2023-02-11T02:56:56;103623.97;;;6.73;85.16
46942;BME280;32676;52.630;4.896;2023-02-11T02:59:35;103610.84;;;6.70;85.13
46942;BME280;32676;52.630;4.896;2023-02-11T03:02:11;103601.97;;;6.65;85.09
46942;BME280;32676;52.630;4.896;2023-02-11T03:04:48;103588.91;;;6.65;85.24
46942;BME280;32676;52.630;4.896;2023-02-11T03:07:22;103577.47;;;6.61;85.14
46942;BME280;32676;52.630;4.896;2023-02-11T03:09:56;103571.38;;;6.61;85.34
46942;BME280;32676;52.630;4.896;2023-02-11T03:12:25;103574.81;;;6.60;85.60
46942;BME280;32676;52.630;4.896;2023-02-11T03:14:53;103571.38;;;6.61;85.47
46942;BME280;32676;52.630;4.896;2023-02-11T03:17:20;103575.75;;;6.62;85.74
46942;BME280;32676;52.630;4.896;2023-02-11T03:19:49;103585.38;;;6.63;85.66
46942;BME280;32676;52.630;4.896;2023-02-11T03:22:18;103574.91;;;6.63;85.85
46942;BME280;32676;52.630;4.896;2023-02-11T03:24:45;103571.19;;;6.54;85.93
46942;BME280;32676;52.630;4.896;2023-02-11T03:27:17;103574.91;;;6.63;85.86
46942;BME280;32676;52.630;4.896;2023-02-11T03:29:50;103574.00;;;6.61;85.88
46942;BME280;32676;52.630;4.896;2023-02-11T03:32:22;103559.09;;;6.58;86.00
46942;BME280;32676;52.630;4.896;2023-02-11T03:34:55;103553.81;;;6.57;85.95
46942;BME280;32676;52.630;4.896;2023-02-11T03:37:25;103540.75;;;6.55;86.04
46942;BME280;32676;52.630;4.896;2023-02-11T03:39:56;103550.28;;;6.54;86.03
46942;BME280;32676;52.630;4.896;2023-02-11T03:42:28;103549.50;;;6.57;86.03
46942;BME280;32676;52.630;4.896;2023-02-11T03:45:03;103538.09;;;6.53;86.10
46942;BME280;32676;52.630;4.896;2023-02-11T03:47:33;103539.84;;;6.54;86.09
46942;BME280;32676;52.630;4.896;2023-02-11T03:50:05;103545.06;;;6.54;86.29
46942;BME280;32676;52.630;4.896;2023-02-11T03:52:34;103545.06;;;6.54;86.34
46942;BME280;32676;52.630;4.896;2023-02-11T03:55:05;103553.81;;;6.57;86.34
46942;BME280;32676;52.630;4.896;2023-02-11T03:57:33;103542.34;;;6.50;86.37
46942;BME280;32676;52.630;4.896;2023-02-11T03:59:59;103535.34;;;6.49;86.29
46942;BME280;32676;52.630;4.896;2023-02-11T04:02:29;103529.31;;;6.51;86.45
46942;BME280;32676;52.630;4.896;2023-02-11T04:04:56;103524.00;;;6.48;86.31
46942;BME280;32676;52.630;4.896;2023-02-11T04:07:24;103504.81;;;6.46;86.18
46942;BME280;32676;52.630;4.896;2023-02-11T04:09:51;103485.41;;;6.38;86.31
46942;BME280;32676;52.630;4.896;2023-02-11T04:12:18;103491.66;;;6.43;86.30
46942;BME280;32676;52.630;4.896;2023-02-11T04:14:44;103477.50;;;6.35;86.65
46942;BME280;32676;52.630;4.896;2023-02-11T04:17:11;103487.19;;;6.39;86.67
46942;BME280;32676;52.630;4.896;2023-02-11T04:19:38;103479.34;;;6.39;86.77
46942;BME280;32676;52.630;4.896;2023-02-11T04:22:05;103471.25;;;6.30;86.88
46942;BME280;32676;52.630;4.896;2023-02-11T04:24:33;103488.94;;;6.40;86.89
46942;BME280;32676;52.630;4.896;2023-02-11T04:27:00;103483.72;;;6.40;86.94
46942;BME280;32676;52.630;4.896;2023-02-11T04:29:26;103476.75;;;6.39;87.11
46942;BME280;32676;52.630;4.896;2023-02-11T04:31:53;103473.22;;;6.37;87.08
46942;BME280;32676;52.630;4.896;2023-02-11T04:34:20;103465.31;;;6.36;87.08
46942;BME280;32676;52.630;4.896;2023-02-11T04:36:48;103466.19;;;6.36;86.98
46942;BME280;32676;52.630;4.896;2023-02-11T04:39:15;103464.44;;;6.35;87.07
46942;BME280;32676;52.630;4.896;2023-02-11T04:41:43;103452.22;;;6.34;86.94
46942;BME280;32676;52.630;4.896;2023-02-11T04:44:09;103452.16;;;6.32;86.97
46942;BME280;32676;52.630;4.896;2023-02-11T04:46:36;103456.50;;;6.32;86.85
46942;BME280;32676;52.630;4.896;2023-02-11T04:49:02;103458.28;;;6.33;86.83
46942;BME280;32676;52.630;4.896;2023-02-11T04:51:30;103457.44;;;6.34;86.70
46942;BME280;32676;52.630;4.896;2023-02-11T04:53:56;103466.19;;;6.36;86.87
46942;BME280;32676;52.630;4.896;2023-02-11T04:56:23;103452.94;;;6.28;87.00
46942;BME280;32676;52.630;4.896;2023-02-11T04:58:51;103466.19;;;6.36;86.80
46942;BME280;32676;52.630;4.896;2023-02-11T05:01:17;103467.88;;;6.34;86.59
46942;BME280;32676;52.630;4.896;2023-02-11T05:03:44;103454.78;;;6.32;86.66
46942;BME280;32676;52.630;4.896;2023-02-11T05:06:11;103457.34;;;6.31;86.68
46942;BME280;32676;52.630;4.896;2023-02-11T05:08:37;103451.28;;;6.32;86.50
46942;BME280;32676;52.630;4.896;2023-02-11T05:11:04;103459.22;;;6.35;86.72
46942;BME280;32676;52.630;4.896;2023-02-11T05:13:31;103453.03;;;6.33;86.51
46942;BME280;32676;52.630;4.896;2023-02-11T05:15:59;103455.66;;;6.33;86.35
46942;BME280;32676;52.630;4.896;2023-02-11T05:18:26;103464.44;;;6.35;86.34
46942;BME280;32676;52.630;4.896;2023-02-11T05:20:52;103453.94;;;6.33;86.23
46942;BME280;32676;52.630;4.896;2023-02-11T05:23:19;103457.44;;;6.34;86.34
46942;BME280;32676;52.630;4.896;2023-02-11T05:25:45;103456.56;;;6.33;86.14
46942;BME280;32676;52.630;4.896;2023-02-11T05:28:12;103455.66;;;6.33;86.03
46942;BME280;32676;52.630;4.896;2023-02-11T05:30:38;103455.66;;;6.33;85.92
46942;BME280;32676;52.630;4.896;2023-02-11T05:33:06;103443.41;;;6.30;85.89
46942;BME280;32676;52.630;4.896;2023-02-11T05:35:32;103445.16;;;6.30;85.69
46942;BME280;32676;52.630;4.896;2023-02-11T05:37:59;103432.91;;;6.29;85.76
46942;BME280;32676;52.630;4.896;2023-02-11T05:40:25;103436.41;;;6.28;85.65
46942;BME280;32676;52.630;4.896;2023-02-11T05:42:52;103417.97;;;6.23;85.63
46942;BME280;32676;52.630;4.896;2023-02-11T05:45:18;103396.97;;;6.19;85.51
46942;BME280;32676;52.630;4.896;2023-02-11T05:47:45;103376.81;;;6.14;85.61
46942;BME280;32676;52.630;4.896;2023-02-11T05:50:12;103360.19;;;6.11;85.11
46942;BME280;32676;52.630;4.896;2023-02-11T05:52:39;103345.25;;;6.05;84.93
46942;BME280;32676;52.630;4.896;2023-02-11T05:55:06;103347.03;;;6.06;84.72
46942;BME280;32676;52.630;4.896;2023-02-11T05:57:33;103341.81;;;6.06;84.56
46942;BME280;32676;52.630;4.896;2023-02-11T05:59:59;103341.81;;;6.06;84.72
46942;BME280;32676;52.630;4.896;2023-02-11T06:02:26;103322.53;;;6.01;84.83
46942;BME280;32676;52.630;4.896;2023-02-11T06:04:52;103329.53;;;6.02;84.80
46942;BME280;32676;52.630;4.896;2023-02-11T06:07:20;103331.28;;;6.03;84.99
46942;BME280;32676;52.630;4.896;2023-02-11T06:09:47;103328.69;;;6.03;85.22
46942;BME280;32676;52.630;4.896;2023-02-11T06:12:13;103340.91;;;6.04;85.48
46942;BME280;32676;52.630;4.896;2023-02-11T06:14:40;103344.44;;;6.06;85.81
46942;BME280;32676;52.630;4.896;2023-02-11T06:17:06;103327.66;;;5.98;86.00
46942;BME280;32676;52.630;4.896;2023-02-11T06:19:33;103345.25;;;6.05;86.00
46942;BME280;32676;52.630;4.896;2023-02-11T06:21:59;103336.41;;;6.00;86.34
46942;BME280;32676;52.630;4.896;2023-02-11T06:24:27;103348.78;;;6.07;86.32
46942;BME280;32676;52.630;4.896;2023-02-11T06:26:54;103347.91;;;6.07;86.43
46942;BME280;32676;52.630;4.896;2023-02-11T06:29:20;103346.22;;;6.09;86.31
46942;BME280;32676;52.630;4.896;2023-02-11T06:31:47;103352.34;;;6.09;86.46
46942;BME280;32676;52.630;4.896;2023-02-11T06:34:13;103347.03;;;6.06;86.50
46942;BME280;32676;52.630;4.896;2023-02-11T06:36:40;103333.84;;;6.02;86.33
46942;BME280;32676;52.630;4.896;2023-02-11T06:39:08;103319.09;;;6.02;86.35
46942;BME280;32676;52.630;4.896;2023-02-11T06:41:37;103319.94;;;6.01;86.23
46942;BME280;32676;52.630;4.896;2023-02-11T06:44:03;103319.00;;;5.99;86.03
46942;BME280;32676;52.630;4.896;2023-02-11T06:46:30;103317.31;;;6.01;86.03
46942;BME280;32676;52.630;4.896;2023-02-11T06:48:56;103319.09;;;6.02;86.05
46942;BME280;32676;52.630;4.896;2023-02-11T06:51:22;103314.63;;;5.98;85.99
46942;BME280;32676;52.630;4.896;2023-02-11T06:53:49;103320.78;;;6.02;85.82
46942;BME280;32676;52.630;4.896;2023-02-11T06:56:18;103308.47;;;5.96;85.78
46942;BME280;32676;52.630;4.896;2023-02-11T06:58:46;103316.31;;;5.96;85.90
46942;BME280;32676;52.630;4.896;2023-02-11T07:01:14;103327.84;;;6.04;86.05
46942;BME280;32676;52.630;4.896;2023-02-11T07:03:43;103337.44;;;6.05;86.02
46942;BME280;32676;52.630;4.896;2023-02-11T07:06:12;103360.19;;;6.09;86.05
46942;BME280;32676;52.630;4.896;2023-02-11T07:08:39;103376.81;;;6.14;86.17
46942;BME280;32676;52.630;4.896;2023-02-11T07:11:08;103375.06;;;6.13;86.18
46942;BME280;32676;52.630;4.896;2023-02-11T07:13:35;103378.63;;;6.15;86.33
46942;BME280;32676;52.630;4.896;2023-02-11T07:16:04;103387.38;;;6.18;86.32
46942;BME280;32676;52.630;4.896;2023-02-11T07:18:31;103383.84;;;6.15;86.29
46942;BME280;32676;52.630;4.896;2023-02-11T07:20:58;103378.63;;;6.15;86.52
46942;BME280;32676;52.630;4.896;2023-02-11T07:23:24;103389.16;;;6.19;86.48
46942;BME280;32676;52.630;4.896;2023-02-11T07:25:51;103401.34;;;6.20;86.75
46942;BME280;32676;52.630;4.896;2023-02-11T07:28:17;103403.13;;;6.21;86.59
46942;BME280;32676;52.630;4.896;2023-02-11T07:30:44;103420.63;;;6.25;86.85
46942;BME280;32676;52.630;4.896;2023-02-11T07:33:12;103439.06;;;6.29;86.95
46942;BME280;32676;52.630;4.896;2023-02-11T07:35:38;103450.44;;;6.33;86.98
46942;BME280;32676;52.630;4.896;2023-02-11T07:38:04;103460.09;;;6.36;87.06
46942;BME280;32676;52.630;4.896;2023-02-11T07:40:31;103473.22;;;6.37;86.86
46942;BME280;32676;52.630;4.896;2023-02-11T07:42:59;103490.72;;;6.41;87.08
46942;BME280;32676;52.630;4.896;2023-02-11T07:45:26;103498.66;;;6.44;87.18
46942;BME280;32676;52.630;4.896;2023-02-11T07:47:52;103503.00;;;6.45;87.17
46942;BME280;32676;52.630;4.896;2023-02-11T07:50:20;103526.72;;;6.51;87.23
46942;BME280;32676;52.630;4.896;2023-02-11T07:52:47;103538.09;;;6.53;87.23
46942;BME280;32676;52.630;4.896;2023-02-11T07:55:13;103561.75;;;6.60;87.36
46942;BME280;32676;52.630;4.896;2023-02-11T07:57:40;103591.53;;;6.65;87.39
46942;BME280;32676;52.630;4.896;2023-02-11T08:00:07;103599.38;;;6.65;87.25
46942;BME280;32676;52.630;4.896;2023-02-11T08:02:33;103624.94;;;6.75;87.37
46942;BME280;32676;52.630;4.896;2023-02-11T08:05:00;103642.47;;;6.79;87.39
46942;BME280;32676;52.630;4.896;2023-02-11T08:07:28;103659.94;;;6.82;87.24
46942;BME280;32676;52.630;4.896;2023-02-11T08:09:54;103690.69;;;6.90;87.22
46942;BME280;32676;52.630;4.896;2023-02-11T08:12:21;103715.25;;;6.96;87.30
46942;BME280;32676;52.630;4.896;2023-02-11T08:14:47;103737.19;;;7.01;87.26
46942;BME280;32676;52.630;4.896;2023-02-11T08:17:14;103755.56;;;7.04;87.09
46942;BME280;32676;52.630;4.896;2023-02-11T08:19:40;103778.44;;;7.11;87.10
46942;BME280;32676;52.630;4.896;2023-02-11T08:22:06;103802.94;;;7.15;87.10
46942;BME280;32676;52.630;4.896;2023-02-11T08:24:34;103809.16;;;7.18;86.94
46942;BME280;32676;52.630;4.896;2023-02-11T08:27:01;103817.00;;;7.18;86.89
46942;BME280;32676;52.630;4.896;2023-02-11T08:29:27;103825.78;;;7.20;86.94
46942;BME280;32676;52.630;4.896;2023-02-11T08:31:54;103840.75;;;7.24;86.84
46942;BME280;32676;52.630;4.896;2023-02-11T08:34:20;103846.91;;;7.26;86.88
46942;BME280;32676;52.630;4.896;2023-02-11T08:36:47;103873.22;;;7.33;86.87
46942;BME280;32676;52.630;4.896;2023-02-11T08:39:16;103901.34;;;7.40;86.89
46942;BME280;32676;52.630;4.896;2023-02-11T08:41:44;103925.94;;;7.45;87.00
46942;BME280;32676;52.630;4.896;2023-02-11T08:44:11;103945.28;;;7.50;86.89
46942;BME280;32676;52.630;4.896;2023-02-11T08:46:37;103975.09;;;7.55;86.98
46942;BME280;32676;52.630;4.896;2023-02-11T08:49:04;103986.56;;;7.59;86.65
46942;BME280;32676;52.630;4.896;2023-02-11T08:51:30;103999.78;;;7.63;86.69
46942;BME280;32676;52.630;4.896;2023-02-11T08:53:57;104013.78;;;7.65;86.70
46942;BME280;32676;52.630;4.896;2023-02-11T08:56:25;104042.78;;;7.72;86.68
46942;BME280;32676;52.630;4.896;2023-02-11T08:58:53;104057.75;;;7.76;86.50
46942;BME280;32676;52.630;4.896;2023-02-11T09:01:21;104091.13;;;7.83;86.60
46942;BME280;32676;52.630;4.896;2023-02-11T09:03:48;104103.47;;;7.87;86.50
46942;BME280;32676;52.630;4.896;2023-02-11T09:06:15;104121.09;;;7.93;86.46
46942;BME280;32676;52.630;4.896;2023-02-11T09:08:45;104118.38;;;7.88;86.24
46942;BME280;32676;52.630;4.896;2023-02-11T09:11:13;104141.34;;;7.97;86.19
46942;BME280;32676;52.630;4.896;2023-02-11T09:13:41;104169.41;;;8.01;86.17
46942;BME280;32676;52.630;4.896;2023-02-11T09:16:15;104167.66;;;8.01;86.00
46942;BME280;32676;52.630;4.896;2023-02-11T09:18:42;104190.53;;;8.07;85.88
46942;BME280;32676;52.630;4.896;2023-02-11T09:21:13;104203.78;;;8.12;85.94
46942;BME280;32676;52.630;4.896;2023-02-11T09:23:40;104223.13;;;8.15;85.92
46942;BME280;32676;52.630;4.896;2023-02-11T09:26:12;104243.16;;;8.15;85.97
46942;BME280;32676;52.630;4.896;2023-02-11T09:28:39;104259.19;;;8.24;85.71
46942;BME280;32676;52.630;4.896;2023-02-11T09:31:07;104263.59;;;8.25;85.65
46942;BME280;32676;52.630;4.896;2023-02-11T09:33:35;104268.00;;;8.26;85.65
46942;BME280;32676;52.630;4.896;2023-02-11T09:36:04;104270.63;;;8.26;85.48
46942;BME280;32676;52.630;4.896;2023-02-11T09:38:31;104284.66;;;8.28;85.44
46942;BME280;32676;52.630;4.896;2023-02-11T09:40:58;104302.25;;;8.32;85.73
46942;BME280;32676;52.630;4.896;2023-02-11T09:43:32;104317.25;;;8.36;85.39
46942;BME280;32676;52.630;4.896;2023-02-11T09:46:01;104317.09;;;8.32;85.11
46942;BME280;32676;52.630;4.896;2023-02-11T09:48:37;104319.97;;;8.39;85.23
46942;BME280;32676;52.630;4.896;2023-02-11T09:51:13;104331.25;;;8.37;84.92
46942;BME280;32676;52.630;4.896;2023-02-11T09:53:42;104335.63;;;8.38;84.68
46942;BME280;32676;52.630;4.896;2023-02-11T09:56:11;104368.31;;;8.48;84.79
46942;BME280;32676;52.630;4.896;2023-02-11T09:58:39;104393.00;;;8.54;84.63
46942;BME280;32676;52.630;4.896;2023-02-11T10:01:14;104415.09;;;8.61;84.52
46942;BME280;32676;52.630;4.896;2023-02-11T10:03:55;104441.50;;;8.67;84.46
46942;BME280;32676;52.630;4.896;2023-02-11T10:06:40;104480.19;;;8.74;84.47
46942;BME280;32676;52.630;4.896;2023-02-11T10:09:27;104519.91;;;8.85;84.39
46942;BME280;32676;52.630;4.896;2023-02-11T10:12:08;104534.84;;;8.88;84.05
46942;BME280;32676;52.630;4.896;2023-02-11T10:14:50;104554.19;;;8.90;83.82
46942;BME280;32676;52.630;4.896;2023-02-11T10:17:26;104608.97;;;9.06;83.56
46942;BME280;32676;52.630;4.896;2023-02-11T10:20:05;104648.66;;;9.15;83.66
46942;BME280;32676;52.630;4.896;2023-02-11T10:22:36;104682.97;;;9.21;83.41
46942;BME280;32676;52.630;4.896;2023-02-11T10:25:21;104723.59;;;9.33;82.91
46942;BME280;32676;52.630;4.896;2023-02-11T10:27:48;104760.72;;;9.44;82.80
46942;BME280;32676;52.630;4.896;2023-02-11T10:30:22;104815.44;;;9.55;82.29
46942;BME280;32676;52.630;4.896;2023-02-11T10:32:52;104866.63;;;9.67;82.10
46942;BME280;32676;52.630;4.896;2023-02-11T10:35:23;104935.47;;;9.82;81.42
46942;BME280;32676;52.630;4.896;2023-02-11T10:37:52;104985.00;;;9.95;81.10
46942;BME280;32676;52.630;4.896;2023-02-11T10:40:21;105032.66;;;10.05;81.05
46942;BME280;32676;52.630;4.896;2023-02-11T10:42:50;105052.13;;;10.10;80.45
46942;BME280;32676;52.630;4.896;2023-02-11T10:45:22;105071.47;;;10.12;79.76
46942;BME280;32676;52.630;4.896;2023-02-11T10:47:50;105106.94;;;10.23;79.21
46942;BME280;32676;52.630;4.896;2023-02-11T10:50:20;105134.31;;;10.28;78.91
46942;BME280;32676;52.630;4.896;2023-02-11T10:52:48;105147.59;;;10.31;78.66
46942;BME280;32676;52.630;4.896;2023-02-11T10:55:16;105179.53;;;10.41;78.38
46942;BME280;32676;52.630;4.896;2023-02-11T10:57:52;105189.25;;;10.43;78.30
46942;BME280;32676;52.630;4.896;2023-02-11T11:00:30;105199.00;;;10.46;78.39
46942;BME280;32676;52.630;4.896;2023-02-11T11:03:00;105191.06;;;10.44;78.07
46942;BME280;32676;52.630;4.896;2023-02-11T11:05:31;105193.63;;;10.43;77.91
46942;BME280;32676;52.630;4.896;2023-02-11T11:08:01;105168.88;;;10.37;77.72
46942;BME280;32676;52.630;4.896;2023-02-11T11:10:41;105172.47;;;10.40;77.76
46942;BME280;32676;52.630;4.896;2023-02-11T11:13:36;105177.84;;;10.43;77.39
46942;BME280;32676;52.630;4.896;2023-02-11T11:16:17;105183.94;;;10.42;77.53
46942;BME280;32676;52.630;4.896;2023-02-11T11:18:46;105184.00;;;10.43;77.62
46942;BME280;32676;52.630;4.896;2023-02-11T11:21:15;105190.22;;;10.45;77.49
46942;BME280;32676;52.630;4.896;2023-02-11T11:23:50;105193.72;;;10.46;77.23
46942;BME280;32676;52.630;4.896;2023-02-11T11:26:18;105191.06;;;10.44;77.35
46942;BME280;32676;52.630;4.896;2023-02-11T11:28:57;105209.63;;;10.49;77.38
46942;BME280;32676;52.630;4.896;2023-02-11T11:31:28;105198.09;;;10.45;77.41
46942;BME280;32676;52.630;4.896;2023-02-11T11:33:57;105194.66;;;10.46;77.24
46942;BME280;32676;52.630;4.896;2023-02-11T11:36:32;105175.22;;;10.43;77.30
46942;BME280;32676;52.630;4.896;2023-02-11T11:39:09;105142.34;;;10.31;77.19
46942;BME280;32676;52.630;4.896;2023-02-11T11:41:49;105135.44;;;10.33;77.36
46942;BME280;32676;52.630;4.896;2023-02-11T11:44:23;105137.19;;;10.34;77.32
46942;BME280;32676;52.630;4.896;2023-02-11T11:47:04;105129.06;;;10.28;77.31
46942;BME280;32676;52.630;4.896;2023-02-11T11:49:34;105154.06;;;10.40;77.50
46942;BME280;32676;52.630;4.896;2023-02-11T11:52:10;105167.34;;;10.43;77.60
46942;BME280;32676;52.630;4.896;2023-02-11T11:54:47;105190.28;;;10.47;77.32
46942;BME280;32676;52.630;4.896;2023-02-11T11:57:21;105207.13;;;10.52;77.29
46942;BME280;32676;52.630;4.896;2023-02-11T11:59:53;105209.75;;;10.52;77.13
46942;BME280;32676;52.630;4.896;2023-02-11T12:02:46;105212.47;;;10.53;76.65
46942;BME280;32676;52.630;4.896;2023-02-11T12:05:17;105229.13;;;10.54;76.65
46942;BME280;32676;52.630;4.896;2023-02-11T12:07:59;105273.47;;;10.67;76.68
46942;BME280;32676;52.630;4.896;2023-02-11T12:10:44;105305.41;;;10.76;76.70
46942;BME280;32676;52.630;4.896;2023-02-11T12:13:26;105338.13;;;10.83;76.06
46942;BME280;32676;52.630;4.896;2023-02-11T12:16:03;105368.28;;;10.91;75.50
46942;BME280;32676;52.630;4.896;2023-02-11T12:18:45;105377.91;;;10.91;75.05
46942;BME280;32676;52.630;4.896;2023-02-11T12:21:24;105406.13;;;10.95;74.81
46942;BME280;32676;52.630;4.896;2023-02-11T12:24:06;105425.84;;;11.05;74.73
46942;BME280;32676;52.630;4.896;2023-02-11T12:26:44;105426.72;;;11.05;74.14
46942;BME280;32676;52.630;4.896;2023-02-11T12:29:20;105408.91;;;10.98;73.84
46942;BME280;32676;52.630;4.896;2023-02-11T12:32:03;105409.97;;;11.03;73.59
46942;BME280;32676;52.630;4.896;2023-02-11T12:35:00;105434.75;;;11.08;73.75
46942;BME280;32676;52.630;4.896;2023-02-11T12:37:38;105413.41;;;11.01;74.02
46942;BME280;32676;52.630;4.896;2023-02-11T12:40:14;105452.47;;;11.12;73.91
46942;BME280;32676;52.630;4.896;2023-02-11T12:42:53;105454.28;;;11.13;74.03
46942;BME280;32676;52.630;4.896;2023-02-11T12:45:52;105456.72;;;11.09;73.79
46942;BME280;32676;52.630;4.896;2023-02-11T12:51:27;105484.44;;;11.22;73.34
46942;BME280;32676;52.630;4.896;2023-02-11T12:54:22;105496.84;;;11.24;72.97
46942;BME280;32676;52.630;4.896;2023-02-11T12:56:54;105523.34;;;11.29;73.29
46942;BME280;32676;52.630;4.896;2023-02-11T12:59:34;105519.88;;;11.30;73.27
46942;BME280;32676;52.630;4.896;2023-02-11T13:02:13;105512.81;;;11.29;72.73
46942;BME280;32676;52.630;4.896;2023-02-11T13:04:47;105493.41;;;11.27;73.03
46942;BME280;32676;52.630;4.896;2023-02-11T13:07:20;105495.97;;;11.25;72.77
46942;BME280;32676;52.630;4.896;2023-02-11T13:09:54;105504.84;;;11.27;72.86
46942;BME280;32676;52.630;4.896;2023-02-11T13:12:24;105509.22;;;11.27;73.13
46942;BME280;32676;52.630;4.896;2023-02-11T13:15:14;105511.13;;;11.31;73.24
46942;BME280;32676;52.630;4.896;2023-02-11T13:17:46;105542.06;;;11.37;72.46